Aviation Digital Data Service (ADDS)

Output produced by METARs form (1233 UTC 19 February 2020)
found at http://aviationweather.gov/metar/data/
 
KHDN 191124Z 1912/2012 12005KT P6SM FEW120 SCT150 
     FM191600 VRB03KT P6SM SCT200 
     FM192100 28005KT P6SM FEW200 
     FM200200 VRB03KT P6SM BKN180